Time;durP1;ratioP1;P1;durP2;ratioP2;P2;SDS_P1;SDS_P2;PMS_P1;PMS_P2;Temp;Humidity;BMP_temperature;BMP_pressure;BME280_temperature;BME280_humidity;BME280_pressure;Samples;Min_cycle;Max_cycle;Signal;HPM_P1;HPM_P2
2023/08/10 00:02:16;;;;;;;1.30;1.20;;;;;;;;;;5094786;28;20819;-77
2023/08/10 00:04:43;;;;;;;1.60;1.47;;;;;;;;;;5095128;28;20611;-77
2023/08/10 00:07:10;;;;;;;1.13;1.13;;;;;;;;;;5094429;28;20209;-77
2023/08/10 00:09:39;;;;;;;1.30;1.20;;;;;;;;;;5112309;28;21157;-77
2023/08/10 00:12:06;;;;;;;2.27;2.07;;;;;;;;;;5112471;28;20251;-77
2023/08/10 00:14:33;;;;;;;2.03;1.40;;;;;;;;;;5094508;28;20680;-77
2023/08/10 00:17:00;;;;;;;2.13;1.27;;;;;;;;;;5112102;28;20682;-77
2023/08/10 00:19:27;;;;;;;6.37;2.13;;;;;;;;;;5112858;28;20199;-77
2023/08/10 00:21:54;;;;;;;3.57;1.80;;;;;;;;;;5112458;28;20207;-77
2023/08/10 00:24:21;;;;;;;1.37;1.30;;;;;;;;;;5112269;28;20201;-77
2023/08/10 00:26:50;;;;;;;1.10;1.00;;;;;;;;;;5094157;28;20665;-76
2023/08/10 00:29:17;;;;;;;2.30;1.33;;;;;;;;;;5112991;28;20202;-77
2023/08/10 00:31:44;;;;;;;1.33;1.23;;;;;;;;;;5093926;28;20282;-77
2023/08/10 00:34:12;;;;;;;2.43;1.50;;;;;;;;;;5094466;28;20585;-77
2023/08/10 00:36:39;;;;;;;1.50;1.40;;;;;;;;;;5094383;28;20241;-77
2023/08/10 00:39:05;;;;;;;3.07;1.33;;;;;;;;;;5112204;28;20203;-77
2023/08/10 00:41:32;;;;;;;1.63;1.30;;;;;;;;;;5112444;28;20217;-77
2023/08/10 00:44:01;;;;;;;1.20;1.10;;;;;;;;;;5111928;28;20211;-77
2023/08/10 00:46:28;;;;;;;1.47;1.37;;;;;;;;;;5111997;28;20202;-77
2023/08/10 00:48:55;;;;;;;4.83;1.70;;;;;;;;;;5111871;28;20692;-77
2023/08/10 00:51:22;;;;;;;1.50;1.40;;;;;;;;;;5093868;28;20272;-77
2023/08/10 00:53:49;;;;;;;1.43;1.33;;;;;;;;;;5094276;28;20615;-77
2023/08/10 00:56:17;;;;;;;1.27;1.17;;;;;;;;;;5093792;28;20202;-77
2023/08/10 00:58:44;;;;;;;9.80;2.00;;;;;;;;;;5094169;28;20661;-77
2023/08/10 01:01:12;;;;;;;5.37;1.97;;;;;;;;;;5093841;28;20673;-77
2023/08/10 01:03:39;;;;;;;1.20;1.10;;;;;;;;;;5093585;28;20230;-77
2023/08/10 01:06:11;;;;;;;1.70;1.60;;;;;;;;;;5112322;28;20192;-77
2023/08/10 01:08:43;;;;;;;2.77;1.93;;;;;;;;;;5111920;28;20196;-77
2023/08/10 01:11:18;;;;;;;1.30;1.20;;;;;;;;;;5112192;28;20282;-77
2023/08/10 01:13:50;;;;;;;1.47;1.37;;;;;;;;;;5077689;28;20559;-77
2023/08/10 01:16:20;;;;;;;2.53;1.20;;;;;;;;;;5096142;28;20718;-77
2023/08/10 01:18:47;;;;;;;1.40;1.30;;;;;;;;;;5116095;28;20202;-77
2023/08/10 01:21:27;;;;;;;1.60;1.40;;;;;;;;;;5116028;28;20196;-77
2023/08/10 01:23:56;;;;;;;2.37;1.50;;;;;;;;;;5115606;28;20287;-77
2023/08/10 01:26:26;;;;;;;1.97;1.60;;;;;;;;;;5115998;28;20195;-77
2023/08/10 01:28:54;;;;;;;1.97;1.30;;;;;;;;;;5115883;28;20195;-77
2023/08/10 01:31:21;;;;;;;2.50;1.50;;;;;;;;;;5115249;28;20199;-77
2023/08/10 01:33:48;;;;;;;2.17;1.60;;;;;;;;;;5115573;28;20210;-77
2023/08/10 01:36:15;;;;;;;1.60;1.50;;;;;;;;;;5116287;28;20199;-77
2023/08/10 01:38:42;;;;;;;1.67;1.53;;;;;;;;;;5096943;28;20207;-77
2023/08/10 01:41:09;;;;;;;1.50;1.40;;;;;;;;;;5080525;28;20673;-77
2023/08/10 01:43:38;;;;;;;4.97;1.60;;;;;;;;;;5097535;28;20219;-77
2023/08/10 01:46:05;;;;;;;2.30;2.00;;;;;;;;;;5097214;28;20191;-77
2023/08/10 01:48:34;;;;;;;1.70;1.27;;;;;;;;;;5097080;28;20202;-76
2023/08/10 01:51:03;;;;;;;1.57;1.47;;;;;;;;;;5115340;28;20563;-77
2023/08/10 01:53:32;;;;;;;1.60;1.37;;;;;;;;;;5115676;28;20247;-77
2023/08/10 01:55:59;;;;;;;3.13;1.33;;;;;;;;;;5114362;28;20195;-77
2023/08/10 01:58:26;;;;;;;1.37;1.27;;;;;;;;;;5096634;28;20203;-77
2023/08/10 02:00:55;;;;;;;2.57;1.50;;;;;;;;;;5115632;28;20199;-77
2023/08/10 02:03:22;;;;;;;7.63;1.60;;;;;;;;;;5096895;28;20223;-77
2023/08/10 02:05:49;;;;;;;1.57;1.20;;;;;;;;;;5064245;28;20207;-77
2023/08/10 02:08:16;;;;;;;1.53;1.43;;;;;;;;;;5115320;28;20230;-76
2023/08/10 02:10:43;;;;;;;1.60;1.17;;;;;;;;;;5096977;28;20199;-77
2023/08/10 02:13:10;;;;;;;3.20;1.43;;;;;;;;;;5114620;28;20592;-76
2023/08/10 02:15:37;;;;;;;3.10;1.70;;;;;;;;;;5115319;28;20219;-77
2023/08/10 02:18:06;;;;;;;2.00;1.57;;;;;;;;;;5114637;28;20194;-76
2023/08/10 02:20:33;;;;;;;2.73;1.80;;;;;;;;;;5115065;28;20191;-76
2023/08/10 02:23:00;;;;;;;1.60;1.50;;;;;;;;;;5096243;28;20214;-76
2023/08/10 02:25:26;;;;;;;1.93;1.73;;;;;;;;;;5114584;28;20210;-77
2023/08/10 02:27:53;;;;;;;1.80;1.70;;;;;;;;;;5113083;28;20203;-77
2023/08/10 02:30:21;;;;;;;1.60;1.40;;;;;;;;;;5079406;28;20208;-76
2023/08/10 02:32:48;;;;;;;1.60;1.50;;;;;;;;;;5096376;28;20285;-76
2023/08/10 02:35:17;;;;;;;1.30;1.20;;;;;;;;;;5114799;28;20195;-77
2023/08/10 02:37:44;;;;;;;1.73;1.27;;;;;;;;;;5096242;28;20256;-76
2023/08/10 02:40:12;;;;;;;2.07;1.87;;;;;;;;;;5113678;28;20202;-76
2023/08/10 02:42:39;;;;;;;1.50;1.40;;;;;;;;;;5114021;28;20202;-77
2023/08/10 02:45:07;;;;;;;2.17;1.43;;;;;;;;;;5114457;28;20280;-75
2023/08/10 02:47:34;;;;;;;1.77;1.67;;;;;;;;;;5114079;28;20197;-74
2023/08/10 02:50:02;;;;;;;1.90;1.63;;;;;;;;;;5113867;28;20209;-74
2023/08/10 02:52:30;;;;;;;1.67;1.57;;;;;;;;;;5096299;28;20287;-74
2023/08/10 02:54:57;;;;;;;3.77;1.97;;;;;;;;;;5114036;28;20202;-74
2023/08/10 02:57:24;;;;;;;2.00;1.87;;;;;;;;;;5095669;28;20191;-74
2023/08/10 02:59:51;;;;;;;2.00;1.83;;;;;;;;;;5113766;28;20212;-74
2023/08/10 03:02:18;;;;;;;2.10;1.80;;;;;;;;;;5113646;28;20209;-74
2023/08/10 03:04:45;;;;;;;1.63;1.53;;;;;;;;;;5095927;28;20280;-74
2023/08/10 03:07:12;;;;;;;1.63;1.50;;;;;;;;;;5113675;28;20194;-75
2023/08/10 03:09:41;;;;;;;1.93;1.83;;;;;;;;;;5095740;28;20198;-74
2023/08/10 03:12:09;;;;;;;1.90;1.77;;;;;;;;;;5079125;28;20256;-74
2023/08/10 03:14:36;;;;;;;2.13;1.30;;;;;;;;;;5113156;28;20196;-74
2023/08/10 03:17:03;;;;;;;1.70;1.60;;;;;;;;;;5113878;28;20193;-74
2023/08/10 03:19:30;;;;;;;1.20;1.20;;;;;;;;;;5095900;28;20232;-76
2023/08/10 03:21:57;;;;;;;1.63;1.53;;;;;;;;;;5113435;28;20668;-76
2023/08/10 03:24:24;;;;;;;2.33;1.77;;;;;;;;;;5095130;28;20703;-76
2023/08/10 03:26:53;;;;;;;1.70;1.60;;;;;;;;;;5095503;28;20198;-76
2023/08/10 03:29:20;;;;;;;1.90;1.80;;;;;;;;;;5113093;28;20560;-76
2023/08/10 03:31:47;;;;;;;1.83;1.73;;;;;;;;;;5095089;28;20665;-76
2023/08/10 03:34:14;;;;;;;1.60;1.50;;;;;;;;;;5078382;28;20206;-76
2023/08/10 03:36:40;;;;;;;2.73;1.63;;;;;;;;;;5112990;28;20205;-76
2023/08/10 03:39:08;;;;;;;2.57;1.60;;;;;;;;;;5094708;28;20198;-75
2023/08/10 03:41:35;;;;;;;1.47;1.37;;;;;;;;;;5113125;28;20228;-75
2023/08/10 03:44:04;;;;;;;1.70;1.60;;;;;;;;;;5113347;28;20230;-76
2023/08/10 03:46:31;;;;;;;1.70;1.60;;;;;;;;;;5112762;28;20200;-76
2023/08/10 03:48:58;;;;;;;1.50;1.40;;;;;;;;;;5113228;28;20201;-76
2023/08/10 03:51:25;;;;;;;2.40;2.20;;;;;;;;;;5113198;28;20199;-76
2023/08/10 03:53:52;;;;;;;1.70;1.60;;;;;;;;;;5112841;28;20281;-76
2023/08/10 03:56:19;;;;;;;1.20;1.20;;;;;;;;;;5112808;28;20660;-76
2023/08/10 03:58:46;;;;;;;1.50;1.40;;;;;;;;;;5094709;28;20197;-76
2023/08/10 04:01:14;;;;;;;1.67;1.57;;;;;;;;;;5112849;28;20607;-76
2023/08/10 04:03:43;;;;;;;2.33;1.50;;;;;;;;;;5098004;28;20300;-75
2023/08/10 04:06:10;;;;;;;1.40;1.20;;;;;;;;;;5092329;28;20289;-75
2023/08/10 04:08:37;;;;;;;1.30;1.20;;;;;;;;;;5091678;28;20202;-76
2023/08/10 04:11:04;;;;;;;3.80;1.37;;;;;;;;;;5074567;28;20206;-83
2023/08/10 04:13:31;;;;;;;2.03;1.50;;;;;;;;;;5073834;28;20203;-76
2023/08/10 04:15:58;;;;;;;1.47;1.37;;;;;;;;;;5057925;28;20203;-77
2023/08/10 04:18:26;;;;;;;4.83;1.40;;;;;;;;;;5092131;28;20206;-78
2023/08/10 04:20:53;;;;;;;1.43;1.33;;;;;;;;;;5092175;28;20268;-78
2023/08/10 04:23:20;;;;;;;1.50;1.40;;;;;;;;;;5091816;28;20199;-78
2023/08/10 04:25:47;;;;;;;1.60;1.50;;;;;;;;;;5074177;28;20208;-78
2023/08/10 04:28:14;;;;;;;1.57;1.40;;;;;;;;;;5073805;28;20207;-77
2023/08/10 04:30:41;;;;;;;1.40;1.30;;;;;;;;;;5057774;28;20203;-78
2023/08/10 04:33:09;;;;;;;2.43;1.70;;;;;;;;;;5057696;28;20222;-78
2023/08/10 04:35:37;;;;;;;1.77;1.43;;;;;;;;;;5091858;28;20621;-78
2023/08/10 04:38:04;;;;;;;1.97;1.57;;;;;;;;;;5092881;28;20203;-78
2023/08/10 04:40:32;;;;;;;1.40;1.30;;;;;;;;;;5091648;28;20210;-78
2023/08/10 04:42:59;;;;;;;1.37;1.27;;;;;;;;;;5090780;28;20292;-78
2023/08/10 04:45:26;;;;;;;1.83;1.63;;;;;;;;;;5091651;28;20220;-78
2023/08/10 04:47:54;;;;;;;4.23;1.60;;;;;;;;;;5090089;28;20211;-78
2023/08/10 04:50:21;;;;;;;2.47;1.47;;;;;;;;;;5092484;28;20579;-79
2023/08/10 04:52:49;;;;;;;1.40;1.30;;;;;;;;;;5111749;28;20617;-80
2023/08/10 04:55:16;;;;;;;1.73;1.63;;;;;;;;;;5095081;28;20675;-80
2023/08/10 04:57:43;;;;;;;1.87;1.77;;;;;;;;;;5094240;28;20669;-80
2023/08/10 05:00:13;;;;;;;1.57;1.47;;;;;;;;;;5094447;28;20197;-80
2023/08/10 05:02:40;;;;;;;1.93;1.40;;;;;;;;;;5111291;28;20223;-80
2023/08/10 05:05:07;;;;;;;4.90;1.90;;;;;;;;;;5094495;28;20238;-80
2023/08/10 05:07:35;;;;;;;1.37;1.27;;;;;;;;;;5114191;28;20206;-79
2023/08/10 05:10:05;;;;;;;6.00;2.00;;;;;;;;;;5116726;28;20286;-79
2023/08/10 05:12:32;;;;;;;1.57;1.43;;;;;;;;;;5114602;28;20195;-79
2023/08/10 05:14:59;;;;;;;4.20;1.60;;;;;;;;;;5105723;28;20287;-79
2023/08/10 05:17:26;;;;;;;1.70;1.60;;;;;;;;;;5100474;28;20540;-80
2023/08/10 05:19:53;;;;;;;1.93;1.57;;;;;;;;;;5105501;28;20231;-80
2023/08/10 05:22:21;;;;;;;2.63;1.70;;;;;;;;;;5095426;28;20577;-80
2023/08/10 05:24:47;;;;;;;2.73;1.50;;;;;;;;;;5095448;28;20228;-80
2023/08/10 05:27:15;;;;;;;1.23;1.10;;;;;;;;;;5093213;28;20192;-79
2023/08/10 05:29:43;;;;;;;1.47;1.37;;;;;;;;;;5109268;28;20282;-79
2023/08/10 05:32:09;;;;;;;5.87;1.43;;;;;;;;;;5114274;28;20218;-80
2023/08/10 05:34:36;;;;;;;1.57;1.40;;;;;;;;;;5114942;28;20195;-80
2023/08/10 05:37:03;;;;;;;1.60;1.50;;;;;;;;;;5108299;28;20610;-79
2023/08/10 05:39:30;;;;;;;2.90;1.70;;;;;;;;;;5104312;28;20191;-79
2023/08/10 05:41:57;;;;;;;1.67;1.57;;;;;;;;;;5100029;28;20188;-79
2023/08/10 05:44:25;;;;;;;2.57;1.40;;;;;;;;;;5115306;28;20229;-79
2023/08/10 05:46:52;;;;;;;2.77;1.60;;;;;;;;;;5114041;28;20196;-79
2023/08/10 05:49:18;;;;;;;1.33;1.23;;;;;;;;;;5115093;28;20206;-79
2023/08/10 05:51:45;;;;;;;1.90;1.10;;;;;;;;;;5115046;28;20614;-79
2023/08/10 05:54:12;;;;;;;2.10;1.30;;;;;;;;;;5116225;28;20233;-79
2023/08/10 05:56:39;;;;;;;3.03;1.70;;;;;;;;;;5114974;28;20196;-79
2023/08/10 05:59:07;;;;;;;1.40;1.30;;;;;;;;;;5115325;28;20253;-79
2023/08/10 06:01:35;;;;;;;0.97;0.97;;;;;;;;;;5108403;28;20192;-79
2023/08/10 06:04:02;;;;;;;1.23;1.20;;;;;;;;;;5100152;28;20219;-78
2023/08/10 06:06:29;;;;;;;1.53;1.40;;;;;;;;;;5112755;28;20261;-78
2023/08/10 06:08:56;;;;;;;2.27;2.07;;;;;;;;;;5109682;28;20211;-77
2023/08/10 06:11:23;;;;;;;1.00;1.00;;;;;;;;;;5111398;28;20203;-77
2023/08/10 06:13:50;;;;;;;1.80;1.40;;;;;;;;;;5107634;28;20248;-76
2023/08/10 06:16:16;;;;;;;1.40;1.30;;;;;;;;;;5113501;28;20192;-77
2023/08/10 06:18:44;;;;;;;2.47;1.80;;;;;;;;;;5113260;28;20210;-77
2023/08/10 06:21:13;;;;;;;1.47;1.10;;;;;;;;;;5112503;28;20211;-76
2023/08/10 06:23:40;;;;;;;2.20;1.20;;;;;;;;;;5110212;28;20192;-76
2023/08/10 06:26:07;;;;;;;1.63;1.53;;;;;;;;;;5093827;28;20314;-77
2023/08/10 06:28:34;;;;;;;1.47;1.37;;;;;;;;;;5092688;28;20678;-76
2023/08/10 06:31:01;;;;;;;1.40;1.30;;;;;;;;;;5094699;28;20200;-76
2023/08/10 06:33:28;;;;;;;1.70;1.60;;;;;;;;;;5111773;28;20196;-76
2023/08/10 06:35:56;;;;;;;1.73;1.17;;;;;;;;;;5105496;28;20191;-76
2023/08/10 06:38:23;;;;;;;3.50;1.27;;;;;;;;;;5113698;28;20200;-76
2023/08/10 06:40:49;;;;;;;1.50;1.40;;;;;;;;;;5106489;28;20196;-76
2023/08/10 06:43:16;;;;;;;1.30;1.20;;;;;;;;;;5093995;28;20200;-76
2023/08/10 06:45:43;;;;;;;1.47;1.23;;;;;;;;;;5093929;28;20216;-76
2023/08/10 06:48:10;;;;;;;2.60;1.80;;;;;;;;;;5097728;28;20200;-78
2023/08/10 06:50:37;;;;;;;2.53;1.60;;;;;;;;;;5093931;28;20192;-78
2023/08/10 06:53:07;;;;;;;3.17;2.10;;;;;;;;;;5102710;28;20227;-78
2023/08/10 06:55:34;;;;;;;4.50;1.67;;;;;;;;;;5112682;28;20200;-78
2023/08/10 06:58:01;;;;;;;2.50;1.77;;;;;;;;;;5110362;28;20266;-77
2023/08/10 07:00:29;;;;;;;1.67;1.40;;;;;;;;;;5093225;28;20200;-77
2023/08/10 07:02:56;;;;;;;2.37;1.50;;;;;;;;;;5093903;28;20204;-80
2023/08/10 07:05:23;;;;;;;6.87;1.93;;;;;;;;;;5111130;28;20250;-77
2023/08/10 07:07:50;;;;;;;1.53;1.43;;;;;;;;;;5099576;28;20196;-76
2023/08/10 07:10:18;;;;;;;4.63;1.40;;;;;;;;;;5092420;28;20666;-77
2023/08/10 07:12:45;;;;;;;1.40;1.30;;;;;;;;;;5112280;28;20195;-77
2023/08/10 07:15:12;;;;;;;1.43;1.33;;;;;;;;;;5113615;28;20530;-77
2023/08/10 07:17:39;;;;;;;4.03;1.20;;;;;;;;;;5111356;28;20192;-78
2023/08/10 07:20:08;;;;;;;1.60;1.50;;;;;;;;;;5113476;28;20199;-78
2023/08/10 07:22:35;;;;;;;1.20;1.20;;;;;;;;;;5095543;28;20207;-78
2023/08/10 07:25:05;;;;;;;2.40;1.77;;;;;;;;;;5098886;28;20212;-78
2023/08/10 07:27:36;;;;;;;2.80;1.13;;;;;;;;;;5092918;28;20196;-77
2023/08/10 07:30:03;;;;;;;1.00;1.00;;;;;;;;;;5107781;28;20195;-78
2023/08/10 07:32:30;;;;;;;1.80;1.70;;;;;;;;;;5099119;28;20195;-78
2023/08/10 07:34:57;;;;;;;1.40;1.30;;;;;;;;;;5112180;28;20195;-77
2023/08/10 07:37:25;;;;;;;3.07;1.60;;;;;;;;;;5110894;28;20207;-78
2023/08/10 07:39:53;;;;;;;2.23;1.23;;;;;;;;;;5110149;28;20203;-78
2023/08/10 07:42:20;;;;;;;3.03;1.70;;;;;;;;;;5101342;28;20196;-78
2023/08/10 07:44:48;;;;;;;1.67;1.57;;;;;;;;;;5108462;28;20690;-78
2023/08/10 07:47:15;;;;;;;1.27;1.17;;;;;;;;;;5091855;28;20192;-77
2023/08/10 07:49:43;;;;;;;2.60;1.67;;;;;;;;;;5107157;28;20590;-78
2023/08/10 07:52:10;;;;;;;2.77;1.50;;;;;;;;;;5100741;28;20550;-78
2023/08/10 07:54:37;;;;;;;1.50;1.40;;;;;;;;;;5099142;28;20191;-78
2023/08/10 07:57:04;;;;;;;3.30;1.60;;;;;;;;;;5101363;28;20196;-78
2023/08/10 07:59:33;;;;;;;1.23;1.20;;;;;;;;;;5106569;28;20199;-78
2023/08/10 08:02:01;;;;;;;4.47;1.43;;;;;;;;;;5100461;28;20196;-78
2023/08/10 08:04:27;;;;;;;2.53;1.60;;;;;;;;;;5107891;28;20276;-78
2023/08/10 08:06:54;;;;;;;2.80;1.70;;;;;;;;;;5097384;28;20191;-78
2023/08/10 08:09:22;;;;;;;1.77;1.67;;;;;;;;;;5094164;28;20254;-78
2023/08/10 08:11:49;;;;;;;1.00;1.00;;;;;;;;;;5094265;28;20198;-78
2023/08/10 08:14:16;;;;;;;2.50;2.00;;;;;;;;;;5110705;28;20199;-78
2023/08/10 08:16:43;;;;;;;3.07;1.87;;;;;;;;;;5111672;28;20195;-77
2023/08/10 08:19:11;;;;;;;1.63;1.53;;;;;;;;;;5094671;28;20204;-78
2023/08/10 08:21:38;;;;;;;5.53;1.40;;;;;;;;;;5098639;28;20195;-78
2023/08/10 08:24:05;;;;;;;1.47;1.37;;;;;;;;;;5111561;28;20653;-77
2023/08/10 08:26:33;;;;;;;1.83;1.60;;;;;;;;;;5103874;28;20220;-77
2023/08/10 08:29:00;;;;;;;1.60;1.50;;;;;;;;;;5092333;28;20196;-78
2023/08/10 08:31:27;;;;;;;1.60;1.50;;;;;;;;;;5091586;28;20188;-77
2023/08/10 08:33:54;;;;;;;1.60;1.50;;;;;;;;;;5090505;28;20207;-78
2023/08/10 08:36:23;;;;;;;1.57;1.43;;;;;;;;;;5097892;28;20614;-77
2023/08/10 08:38:49;;;;;;;1.37;1.27;;;;;;;;;;5110841;28;20229;-78
2023/08/10 08:41:18;;;;;;;4.17;1.60;;;;;;;;;;5111685;28;20195;-78
2023/08/10 08:43:47;;;;;;;1.70;1.60;;;;;;;;;;5095831;28;21794;-78
2023/08/10 08:46:14;;;;;;;7.10;1.70;;;;;;;;;;5091706;28;20234;-77
2023/08/10 08:48:42;;;;;;;1.93;1.50;;;;;;;;;;5108813;28;20218;-77
2023/08/10 08:51:08;;;;;;;4.83;1.30;;;;;;;;;;5099316;28;20200;-78
2023/08/10 08:53:37;;;;;;;1.80;1.70;;;;;;;;;;5104246;28;20228;-78
2023/08/10 08:56:04;;;;;;;3.03;1.40;;;;;;;;;;5103445;28;20192;-77
2023/08/10 08:58:32;;;;;;;1.97;1.70;;;;;;;;;;5108839;28;20685;-78
2023/08/10 09:00:59;;;;;;;1.97;1.70;;;;;;;;;;5109027;28;20207;-78
2023/08/10 09:03:27;;;;;;;3.97;1.30;;;;;;;;;;5108911;28;20209;-78
2023/08/10 09:05:54;;;;;;;2.60;1.60;;;;;;;;;;5109131;28;20212;-78
2023/08/10 09:08:22;;;;;;;1.30;1.20;;;;;;;;;;5107548;28;20207;-78
2023/08/10 09:10:50;;;;;;;1.63;1.30;;;;;;;;;;5105670;28;20240;-78
2023/08/10 09:13:18;;;;;;;1.43;1.33;;;;;;;;;;5098164;28;20198;-78
2023/08/10 09:15:46;;;;;;;3.60;1.10;;;;;;;;;;5110196;28;20746;-77
2023/08/10 09:18:13;;;;;;;2.00;1.40;;;;;;;;;;5107194;28;20200;-77
2023/08/10 09:20:39;;;;;;;2.40;1.40;;;;;;;;;;5110090;28;20209;-77
2023/08/10 09:23:07;;;;;;;1.80;1.40;;;;;;;;;;5111313;28;20199;-77
2023/08/10 09:25:38;;;;;;;1.53;1.43;;;;;;;;;;5095878;28;20664;-77
2023/08/10 09:28:12;;;;;;;1.60;1.50;;;;;;;;;;5091211;28;20245;-77
2023/08/10 09:30:41;;;;;;;1.33;1.23;;;;;;;;;;5091262;28;20200;-77
2023/08/10 09:33:08;;;;;;;1.03;1.03;;;;;;;;;;5096576;28;20223;-77
2023/08/10 09:35:34;;;;;;;2.60;1.67;;;;;;;;;;5099591;28;20203;-76
2023/08/10 09:38:03;;;;;;;1.10;1.10;;;;;;;;;;5100219;28;20241;-76
2023/08/10 09:40:30;;;;;;;2.00;1.20;;;;;;;;;;5116025;28;20200;-75
2023/08/10 09:42:57;;;;;;;1.20;1.10;;;;;;;;;;5099271;28;20200;-76
2023/08/10 09:45:26;;;;;;;1.10;1.10;;;;;;;;;;5110271;28;20215;-76
2023/08/10 09:47:53;;;;;;;1.37;1.27;;;;;;;;;;5110095;28;20192;-76
2023/08/10 09:50:20;;;;;;;1.30;1.20;;;;;;;;;;5095588;28;20196;-76
2023/08/10 09:52:49;;;;;;;1.03;1.03;;;;;;;;;;5103085;28;20219;-76
2023/08/10 09:55:16;;;;;;;1.40;1.30;;;;;;;;;;5115459;28;20272;-76
2023/08/10 09:57:45;;;;;;;1.80;1.00;;;;;;;;;;5113929;28;20192;-76
2023/08/10 10:00:18;;;;;;;0.90;0.90;;;;;;;;;;5100204;28;20671;-76
2023/08/10 10:02:46;;;;;;;1.17;1.07;;;;;;;;;;5114493;28;20191;-76
2023/08/10 10:05:14;;;;;;;1.00;1.00;;;;;;;;;;5113754;28;20226;-76
2023/08/10 10:07:42;;;;;;;1.13;1.10;;;;;;;;;;5115104;28;20227;-76
2023/08/10 10:10:13;;;;;;;1.07;1.00;;;;;;;;;;5103721;28;20662;-77
2023/08/10 10:12:41;;;;;;;0.83;0.83;;;;;;;;;;5108236;28;20191;-77
2023/08/10 10:15:08;;;;;;;4.03;0.80;;;;;;;;;;5113865;28;20750;-76
2023/08/10 10:17:36;;;;;;;1.63;1.10;;;;;;;;;;5113866;28;20199;-77
2023/08/10 10:20:11;;;;;;;1.40;1.20;;;;;;;;;;5100141;28;20234;-77
2023/08/10 10:22:38;;;;;;;1.00;1.00;;;;;;;;;;5096819;28;20629;-76
2023/08/10 10:25:06;;;;;;;2.33;1.20;;;;;;;;;;5103976;28;20224;-76
2023/08/10 10:27:39;;;;;;;1.27;1.17;;;;;;;;;;5104803;28;20216;-76
2023/08/10 10:30:13;;;;;;;1.00;0.90;;;;;;;;;;5093323;28;20192;-76
2023/08/10 10:32:44;;;;;;;1.50;1.40;;;;;;;;;;5099559;28;20661;-77
2023/08/10 10:35:16;;;;;;;1.17;1.07;;;;;;;;;;5102273;28;20192;-76
2023/08/10 10:37:43;;;;;;;1.63;1.13;;;;;;;;;;5106283;28;20200;-76
2023/08/10 10:40:15;;;;;;;1.47;1.40;;;;;;;;;;5100624;28;20191;-76
2023/08/10 10:43:05;;;;;;;1.13;1.10;;;;;;;;;;5104877;28;20204;-76
2023/08/10 10:45:35;;;;;;;1.20;1.10;;;;;;;;;;5112493;28;20200;-76
2023/08/10 10:48:02;;;;;;;1.20;1.10;;;;;;;;;;5111519;28;20657;-76
2023/08/10 10:50:32;;;;;;;2.13;1.43;;;;;;;;;;5113949;28;20282;-76
2023/08/10 10:52:59;;;;;;;2.10;1.03;;;;;;;;;;5108399;28;20221;-76
2023/08/10 10:55:28;;;;;;;0.90;0.90;;;;;;;;;;5104052;28;20196;-76
2023/08/10 10:57:55;;;;;;;1.50;1.40;;;;;;;;;;5110024;28;20202;-77
2023/08/10 11:00:24;;;;;;;1.30;1.10;;;;;;;;;;5112660;28;20569;-75
2023/08/10 11:02:51;;;;;;;1.40;1.30;;;;;;;;;;5096196;28;20199;-76
2023/08/10 11:05:19;;;;;;;1.00;1.00;;;;;;;;;;5104345;28;20199;-76
2023/08/10 11:07:48;;;;;;;1.30;1.20;;;;;;;;;;5112892;28;20225;-76
2023/08/10 11:10:16;;;;;;;1.10;1.10;;;;;;;;;;5112038;28;20188;-76
2023/08/10 11:12:44;;;;;;;3.20;1.33;;;;;;;;;;5113810;28;20195;-76
2023/08/10 11:15:13;;;;;;;2.50;1.07;;;;;;;;;;5111331;28;20198;-77
2023/08/10 11:17:41;;;;;;;1.20;1.20;;;;;;;;;;5112367;28;20203;-76
2023/08/10 11:20:11;;;;;;;1.77;1.30;;;;;;;;;;5109369;28;20204;-76
2023/08/10 11:22:38;;;;;;;1.40;1.30;;;;;;;;;;5103480;28;20207;-78
2023/08/10 11:25:11;;;;;;;1.10;1.10;;;;;;;;;;5112694;28;20291;-77
2023/08/10 11:27:38;;;;;;;1.00;1.00;;;;;;;;;;5113511;28;20223;-77
2023/08/10 11:30:07;;;;;;;1.30;1.20;;;;;;;;;;5111325;28;20192;-78
2023/08/10 11:32:34;;;;;;;1.60;1.40;;;;;;;;;;5113163;28;20195;-77
2023/08/10 11:35:01;;;;;;;1.93;1.27;;;;;;;;;;5101734;28;20200;-78
2023/08/10 11:37:31;;;;;;;1.50;1.40;;;;;;;;;;5093185;28;20196;-77
2023/08/10 11:40:05;;;;;;;1.43;1.20;;;;;;;;;;5091482;28;20207;-78
2023/08/10 11:42:36;;;;;;;1.17;1.17;;;;;;;;;;5105493;28;20220;-78
2023/08/10 11:45:08;;;;;;;1.80;1.70;;;;;;;;;;5106821;28;20729;-77
2023/08/10 11:47:45;;;;;;;2.00;1.80;;;;;;;;;;5110628;28;20230;-78
2023/08/10 11:50:12;;;;;;;1.30;1.20;;;;;;;;;;5109424;28;20202;-77
2023/08/10 11:52:40;;;;;;;1.70;1.60;;;;;;;;;;5112382;28;20697;-77
2023/08/10 11:55:12;;;;;;;1.80;1.70;;;;;;;;;;5109847;28;20238;-79
2023/08/10 11:57:44;;;;;;;1.57;1.47;;;;;;;;;;5105129;28;20196;-78
2023/08/10 12:00:23;;;;;;;1.13;1.13;;;;;;;;;;5100987;28;20665;-78
2023/08/10 12:02:58;;;;;;;1.80;1.70;;;;;;;;;;5110747;28;20248;-78
2023/08/10 12:05:42;;;;;;;1.53;1.43;;;;;;;;;;5112077;28;20275;-78
2023/08/10 12:08:11;;;;;;;1.73;1.63;;;;;;;;;;5102931;28;20279;-77
2023/08/10 12:10:40;;;;;;;2.23;1.63;;;;;;;;;;5103035;28;20204;-78
2023/08/10 12:13:10;;;;;;;1.57;1.47;;;;;;;;;;5110793;28;20202;-77
2023/08/10 12:15:37;;;;;;;1.60;1.50;;;;;;;;;;5096141;28;20230;-77
2023/08/10 12:18:05;;;;;;;1.87;1.67;;;;;;;;;;5099658;28;20184;-79
2023/08/10 12:20:32;;;;;;;1.70;1.60;;;;;;;;;;5099814;28;20673;-78
2023/08/10 12:22:59;;;;;;;1.40;1.30;;;;;;;;;;5110483;28;20206;-78
2023/08/10 12:25:26;;;;;;;2.57;1.73;;;;;;;;;;5110639;28;20662;-78
2023/08/10 12:27:53;;;;;;;1.50;1.40;;;;;;;;;;5098079;28;20244;-78
2023/08/10 12:30:21;;;;;;;1.73;1.63;;;;;;;;;;5109855;28;20200;-78
2023/08/10 12:32:48;;;;;;;1.27;1.17;;;;;;;;;;5110270;28;20669;-79
2023/08/10 12:35:15;;;;;;;1.60;1.50;;;;;;;;;;5098462;28;20200;-79
2023/08/10 12:37:45;;;;;;;1.43;1.33;;;;;;;;;;5100938;28;20203;-79
2023/08/10 12:40:12;;;;;;;1.57;1.47;;;;;;;;;;5095182;28;20258;-79
2023/08/10 12:42:40;;;;;;;1.50;1.40;;;;;;;;;;5103979;28;20203;-79
2023/08/10 12:45:10;;;;;;;1.67;1.57;;;;;;;;;;5098670;28;20237;-78
2023/08/10 12:47:39;;;;;;;1.63;1.53;;;;;;;;;;5105635;28;20219;-78
2023/08/10 12:50:06;;;;;;;1.50;1.40;;;;;;;;;;5110705;28;20332;-79
2023/08/10 12:52:33;;;;;;;1.63;1.53;;;;;;;;;;5106842;28;20227;-78
2023/08/10 12:55:01;;;;;;;1.90;1.70;;;;;;;;;;5111365;28;20195;-78
2023/08/10 12:57:28;;;;;;;1.47;1.37;;;;;;;;;;5110425;28;20196;-78
2023/08/10 12:59:54;;;;;;;2.10;1.90;;;;;;;;;;5097633;28;20194;-78
2023/08/10 13:02:21;;;;;;;2.77;1.43;;;;;;;;;;5110397;28;20191;-78
2023/08/10 13:04:50;;;;;;;1.70;1.60;;;;;;;;;;5111326;28;20678;-78
2023/08/10 13:07:18;;;;;;;2.97;1.63;;;;;;;;;;5110167;28;20230;-78
2023/08/10 13:09:46;;;;;;;1.70;1.60;;;;;;;;;;5110965;28;20298;-78
2023/08/10 13:12:13;;;;;;;1.43;1.33;;;;;;;;;;5112672;28;20244;-78
2023/08/10 13:14:40;;;;;;;1.83;1.33;;;;;;;;;;5105987;28;20246;-78
2023/08/10 13:17:07;;;;;;;1.93;1.63;;;;;;;;;;5096253;28;20200;-78
2023/08/10 13:19:34;;;;;;;2.50;1.30;;;;;;;;;;5095658;28;20219;-77
2023/08/10 13:22:02;;;;;;;1.77;1.40;;;;;;;;;;5093863;28;20196;-78
2023/08/10 13:24:30;;;;;;;1.70;1.60;;;;;;;;;;5106602;28;20196;-77
2023/08/10 13:26:57;;;;;;;2.13;1.67;;;;;;;;;;5099720;28;20223;-77
2023/08/10 13:29:23;;;;;;;4.63;2.23;;;;;;;;;;5095571;28;20207;-77
2023/08/10 13:31:51;;;;;;;2.57;1.87;;;;;;;;;;5095004;28;20254;-78
2023/08/10 13:34:18;;;;;;;2.77;1.63;;;;;;;;;;5093078;28;20311;-78
2023/08/10 13:36:44;;;;;;;2.00;1.80;;;;;;;;;;5094289;28;20204;-77
2023/08/10 13:39:13;;;;;;;1.60;1.50;;;;;;;;;;5093979;28;20203;-78
2023/08/10 13:41:39;;;;;;;1.50;1.40;;;;;;;;;;5107174;28;20203;-78
2023/08/10 13:44:06;;;;;;;1.67;1.57;;;;;;;;;;5113489;28;20195;-77
2023/08/10 13:46:33;;;;;;;1.63;1.53;;;;;;;;;;5115125;28;20222;-78
2023/08/10 13:49:01;;;;;;;2.53;1.60;;;;;;;;;;5113857;28;20195;-78
2023/08/10 13:51:28;;;;;;;1.70;1.60;;;;;;;;;;5114052;28;20261;-78
2023/08/10 13:53:55;;;;;;;1.67;1.57;;;;;;;;;;5114191;28;20228;-78
2023/08/10 13:56:23;;;;;;;1.90;1.80;;;;;;;;;;5114695;28;20614;-77
2023/08/10 13:58:50;;;;;;;3.07;1.70;;;;;;;;;;5115298;28;20203;-77
2023/08/10 14:01:17;;;;;;;2.10;1.97;;;;;;;;;;5110312;28;20187;-78
2023/08/10 14:03:44;;;;;;;1.87;1.67;;;;;;;;;;5114745;28;20639;-78
2023/08/10 14:06:11;;;;;;;3.23;2.10;;;;;;;;;;5114839;28;20213;-77
2023/08/10 14:08:38;;;;;;;1.80;1.70;;;;;;;;;;5115143;28;20227;-78
2023/08/10 14:11:04;;;;;;;2.00;1.90;;;;;;;;;;5115114;28;20195;-77
2023/08/10 14:13:33;;;;;;;5.53;1.80;;;;;;;;;;5094648;28;20223;-78
2023/08/10 14:16:00;;;;;;;1.83;1.73;;;;;;;;;;5094643;28;20204;-78
2023/08/10 14:18:27;;;;;;;2.67;1.90;;;;;;;;;;5094217;28;20203;-77
2023/08/10 14:20:54;;;;;;;2.00;1.90;;;;;;;;;;5094165;28;20199;-77
2023/08/10 14:23:21;;;;;;;1.63;1.53;;;;;;;;;;5093988;28;20207;-78
2023/08/10 14:25:47;;;;;;;1.80;1.70;;;;;;;;;;5094133;28;20203;-77
2023/08/10 14:28:14;;;;;;;1.90;1.80;;;;;;;;;;5094037;28;20223;-77
2023/08/10 14:30:43;;;;;;;2.20;2.00;;;;;;;;;;5094119;28;20200;-77
2023/08/10 14:33:10;;;;;;;2.00;1.90;;;;;;;;;;5094415;28;20212;-77
2023/08/10 14:35:37;;;;;;;1.60;1.50;;;;;;;;;;5093768;28;20197;-77
2023/08/10 14:38:03;;;;;;;2.13;2.00;;;;;;;;;;5094195;28;20201;-77
2023/08/10 14:40:31;;;;;;;2.43;2.23;;;;;;;;;;5103811;28;20286;-77
2023/08/10 14:42:57;;;;;;;1.90;1.80;;;;;;;;;;5113372;28;20203;-77
2023/08/10 14:45:26;;;;;;;3.07;2.03;;;;;;;;;;5114086;28;20195;-77
2023/08/10 14:47:58;;;;;;;2.23;2.03;;;;;;;;;;5114432;28;20215;-77